African Dove — C6BA2 — position and weather

sailwx.info

Track history (hours):
 
Tides and Currents Weather Stations Pressure Air Temp Water Temp Dewpoint Dewpoint Depression Visibility Wind Speed Wind Dir Waves Ship Positions

African Dove

Last reported at 2017-Nov-02 20:24 UTC. Time now 2017-Nov-21 17:17 UTC.
Position N 46°00' W 125°31'.
Warning: this ship's position is 18 days out of date.

Length 180 m; draft 10.2 m.

Type: Cargo ship. MMSI: 311000205.

Date/timePositionNaut miles runAvg speedWind from/ knotsBaromVisibWave heightAir tempDewpointWater temp
2017-Nov-02 20:24N 46°00' W 125°31'4 8.7
2017-Nov-02 20:00N 46°01' W 125°26'4 8.6
2017-Nov-02 19:30N 46°02' W 125°20'4 8.8
2017-Nov-02 19:00N 46°04' W 125°14'4 8.7
2017-Nov-02 18:30N 46°05' W 125°08'4 8.8
2017-Nov-02 18:00N 46°06' W 125°02'4 9.0
2017-Nov-02 17:30N 46°07' W 124°56'5 9.1
2017-Nov-02 17:00N 46°09' W 124°49'5 9.3
2017-Nov-02 16:30N 46°10' W 124°43'5 9.4
2017-Nov-02 16:00N 46°10' W 124°36'5 9.7
2017-Nov-02 15:30N 46°11' W 124°29'5 9.8
2017-Nov-02 15:00N 46°11' W 124°22'510.2
2017-Nov-02 14:30N 46°11' W 124°15'510.2
2017-Nov-02 14:00N 46°13' W 124°08'5 9.7
2017-Nov-02 13:30N 46°15' W 124°02'612.1
2017-Nov-02 13:00N 46°12' W 123°55'510.3
2017-Nov-02 12:30N 46°12' W 123°48'612.2
2017-Nov-02 12:00N 46°15' W 123°40'713.0
2017-Nov-02 11:30N 46°16' W 123°31'510.3
2017-Nov-02 11:00N 46°12' W 123°26'5 9.7
2017-Nov-02 10:30N 46°09' W 123°21'611.3
2017-Nov-02 10:00N 46°10' W 123°13'510.1
2017-Nov-02 09:30N 46°11' W 123°06'510.7
2017-Nov-02 09:00N 46°08' W 122°60'713.5
2017-Nov-02 08:30N 46°03' W 122°53'2 4.0
2017-Nov-02 08:00N 46°01' W 122°51'510.3
2017-Nov-02 07:30N 45°56' W 122°48'612.0
2017-Nov-02 07:00N 45°50' W 122°47'612.2
2017-Nov-02 06:30N 45°44' W 122°46'611.0
2017-Nov-02 06:00N 45°39' W 122°46'3 5.4
2017-Nov-02 05:30N 45°36' W 122°47'0 0.1
2017-Nov-02 04:56N 45°36' W 122°47'0 0.0
2017-Nov-02 04:26N 45°36' W 122°47'0 0.0
2017-Nov-02 03:26N 45°36' W 122°47'0 0.0
2017-Nov-02 02:59N 45°36' W 122°47'0 0.0
2017-Nov-02 02:29N 45°36' W 122°47'0 0.1
2017-Nov-02 01:53N 45°36' W 122°46'0 0.0
2017-Nov-02 01:29N 45°36' W 122°46'0 0.0
2017-Nov-02 00:53N 45°36' W 122°46'0 0.0
2017-Nov-02 00:29N 45°36' W 122°46'0 0.0
2017-Nov-01 23:53N 45°36' W 122°46'0 0.0
2017-Nov-01 23:29N 45°36' W 122°46'0 0.0
2017-Nov-01 22:53N 45°36' W 122°46'0 0.0
2017-Nov-01 22:26N 45°36' W 122°46'0 0.0
2017-Nov-01 21:59N 45°36' W 122°46'0 0.0
2017-Nov-01 21:23N 45°36' W 122°46'0 0.0
2017-Nov-01 20:56N 45°36' W 122°46'0 0.0
2017-Nov-01 20:29N 45°36' W 122°46'0 0.0
2017-Nov-01 19:59N 45°36' W 122°46'0 0.0
2017-Nov-01 19:26N 45°36' W 122°46'0 0.0
2017-Nov-01 18:59N 45°36' W 122°46'0 0.0
2017-Nov-01 18:29N 45°36' W 122°46'0 0.0
2017-Nov-01 01:59N 45°36' W 122°47'0 0.0
2017-Nov-01 01:23N 45°36' W 122°47'0 0.0
2017-Nov-01 00:59N 45°36' W 122°47'0 0.1
2017-Nov-01 00:26N 45°36' W 122°46'0 0.0
2017-Oct-31 23:56N 45°36' W 122°46'0 0.0
2017-Oct-31 23:29N 45°36' W 122°46'0 0.0
2017-Oct-31 22:59N 45°36' W 122°46'0 0.0
2017-Oct-31 22:26N 45°36' W 122°46'0 0.0
2017-Oct-31 21:59N 45°36' W 122°46'0 0.0
2017-Oct-31 21:29N 45°36' W 122°46'0 0.0
2017-Oct-31 20:59N 45°36' W 122°46'0 0.0
2017-Oct-31 20:29N 45°36' W 122°46'0 0.0
2017-Oct-31 19:59N 45°36' W 122°46'0 0.0
2017-Oct-31 19:17N 45°36' W 122°46'0 0.0
2017-Oct-31 18:59N 45°36' W 122°46'0 0.1
2017-Oct-31 18:29N 45°36' W 122°47'0 0.0
2017-Oct-31 17:59N 45°36' W 122°47'0 0.0
2017-Oct-31 17:29N 45°36' W 122°47'0 0.0
2017-Oct-31 16:41N 45°36' W 122°47'0 0.0
2017-Oct-31 16:20N 45°36' W 122°47'0 0.0
2017-Oct-31 15:59N 45°36' W 122°47'0 0.0
2017-Oct-31 15:23N 45°36' W 122°47'0 0.0
2017-Oct-31 14:47N 45°36' W 122°47'0 0.0
2017-Oct-31 14:29N 45°36' W 122°47'0 0.0
2017-Oct-31 13:59N 45°36' W 122°47'0 0.0
2017-Oct-31 13:26N 45°36' W 122°47'0 0.0
2017-Oct-31 12:59N 45°36' W 122°47'0 0.0
2017-Oct-31 12:29N 45°36' W 122°47'0 0.0
2017-Oct-31 11:56N 45°36' W 122°47'0 0.0
2017-Oct-31 11:23N 45°36' W 122°47'0 0.0
2017-Oct-31 10:56N 45°36' W 122°47'0 0.0
2017-Oct-31 10:29N 45°36' W 122°47'0 0.0
2017-Oct-31 09:53N 45°36' W 122°47'0 0.0
2017-Oct-31 09:23N 45°36' W 122°47'0 0.0
2017-Oct-31 08:59N 45°36' W 122°47'0 0.0
2017-Oct-31 08:26N 45°36' W 122°47'0 0.0
2017-Oct-31 07:11N 45°36' W 122°47'0 0.0
2017-Oct-31 06:56N 45°36' W 122°47'0 0.0
2017-Oct-31 06:29N 45°36' W 122°47'0 0.0
2017-Oct-31 05:38N 45°36' W 122°47'0 0.0
2017-Oct-31 05:29N 45°36' W 122°47'0 0.0
2017-Oct-31 04:59N 45°36' W 122°47'0 0.0
2017-Oct-31 04:26N 45°36' W 122°47'0 0.0
2017-Oct-31 03:59N 45°36' W 122°47'0 0.0
2017-Oct-31 03:29N 45°36' W 122°47'0 0.0
2017-Oct-31 02:56N 45°36' W 122°47'0 0.0
2017-Oct-31 02:11N 45°36' W 122°47'0 0.0
2017-Oct-31 01:59N 45°36' W 122°47'0 0.0
2017-Oct-31 01:23N 45°36' W 122°47'0 0.0
2017-Oct-31 00:50N 45°36' W 122°47'0 0.0
2017-Oct-31 00:29N 45°36' W 122°47'0 0.0
2017-Oct-30 23:26N 45°36' W 122°47'0 0.0
2017-Oct-30 22:59N 45°36' W 122°47'0 0.0
2017-Oct-30 22:26N 45°36' W 122°47'0 0.0
2017-Oct-30 21:59N 45°36' W 122°47'0 0.0
2017-Oct-30 21:26N 45°36' W 122°47'0 0.0
2017-Oct-30 20:56N 45°36' W 122°47'0 0.0
2017-Oct-30 20:29N 45°36' W 122°47'0 0.0
2017-Oct-30 19:59N 45°36' W 122°47'0 0.0
2017-Oct-30 19:29N 45°36' W 122°47'0 0.0
2017-Oct-30 18:50N 45°36' W 122°47'0 0.1
2017-Oct-30 18:26N 45°36' W 122°46'0 0.0
2017-Oct-30 17:56N 45°36' W 122°46'0 0.0
2017-Oct-30 17:29N 45°36' W 122°46'0 0.0
2017-Oct-30 16:53N 45°36' W 122°46'0 0.0
2017-Oct-30 16:29N 45°36' W 122°46'0 0.0
2017-Oct-30 15:56N 45°36' W 122°46'0 0.0
2017-Oct-30 15:26N 45°36' W 122°46'0 0.0
2017-Oct-30 14:59N 45°36' W 122°46'0 0.0
2017-Oct-30 13:59N 45°36' W 122°46'0 0.0
2017-Oct-30 13:29N 45°36' W 122°46'0 0.0
2017-Oct-30 12:44N 45°36' W 122°46'0 0.0
2017-Oct-30 12:29N 45°36' W 122°46'0 0.0
2017-Oct-30 11:56N 45°36' W 122°46'0 0.0
2017-Oct-30 11:29N 45°36' W 122°46'0 0.3
2017-Oct-30 11:00N 45°36' W 122°47'3 5.4
2017-Oct-30 10:30N 45°39' W 122°46'2 3.7
2017-Oct-30 10:00N 45°41' W 122°46'0 0.1
2017-Oct-30 09:18N 45°41' W 122°46'0 0.0
2017-Oct-30 09:00N 45°41' W 122°46'0 0.2
2017-Oct-30 08:30N 45°40' W 122°46'0 0.1
2017-Oct-30 08:00N 45°40' W 122°46'0 0.1
2017-Oct-30 07:30N 45°40' W 122°46'0 0.2
2017-Oct-30 07:00N 45°40' W 122°46'0 0.1
2017-Oct-30 06:06N 45°41' W 122°46'0 0.1
2017-Oct-30 06:00N 45°41' W 122°46'0 0.1
2017-Oct-30 05:30N 45°41' W 122°46'0 0.0
2017-Oct-30 04:57N 45°41' W 122°46'0 0.0
2017-Oct-30 04:09N 45°41' W 122°46'0 0.0
2017-Oct-30 03:54N 45°41' W 122°46'0 0.0
2017-Oct-30 03:27N 45°41' W 122°46'0 0.0
2017-Oct-30 02:45N 45°41' W 122°46'0 0.0
2017-Oct-30 02:30N 45°41' W 122°46'0 0.0
2017-Oct-30 01:57N 45°41' W 122°46'0 0.0
2017-Oct-30 01:27N 45°41' W 122°46'0 0.0
2017-Oct-30 01:00N 45°41' W 122°46'0 0.0
2017-Oct-30 00:30N 45°41' W 122°46'0 0.0
2017-Oct-29 23:57N 45°41' W 122°46'0 0.0
2017-Oct-29 23:30N 45°41' W 122°46'0 0.0
2017-Oct-29 23:00N 45°41' W 122°46'0 0.0
2017-Oct-29 22:30N 45°41' W 122°46'0 0.0
2017-Oct-29 22:00N 45°41' W 122°46'0 0.4
2017-Oct-29 21:30N 45°40' W 122°46'0 0.1
2017-Oct-29 21:00N 45°40' W 122°46'0 0.0
2017-Oct-29 20:27N 45°40' W 122°46'0 0.0
2017-Oct-29 20:00N 45°40' W 122°46'0 0.0
2017-Oct-29 19:30N 45°40' W 122°46'0 0.1
2017-Oct-29 19:00N 45°40' W 122°46'0 0.3
2017-Oct-29 18:30N 45°41' W 122°46'0 0.1
2017-Oct-29 18:00N 45°41' W 122°46'0 0.0
2017-Oct-29 17:30N 45°41' W 122°46'0 0.0
2017-Oct-29 17:00N 45°41' W 122°46'0 0.1
2017-Oct-29 16:30N 45°41' W 122°46'0 0.0
2017-Oct-29 16:00N 45°41' W 122°46'0 0.0
2017-Oct-29 15:27N 45°41' W 122°46'0 0.0
2017-Oct-29 15:00N 45°41' W 122°46'0 0.0
2017-Oct-29 14:24N 45°41' W 122°46'0 0.0
2017-Oct-29 13:57N 45°41' W 122°46'0 0.0
2017-Oct-29 13:30N 45°41' W 122°46'0 0.0
2017-Oct-29 12:57N 45°41' W 122°46'0 0.1
2017-Oct-29 12:24N 45°41' W 122°46'0 0.1
2017-Oct-29 12:00N 45°41' W 122°46'0 0.0
2017-Oct-29 11:30N 45°41' W 122°46'0 0.0
2017-Oct-29 11:00N 45°41' W 122°46'0 0.0
2017-Oct-29 10:30N 45°41' W 122°46'0 0.0
2017-Oct-29 09:57N 45°41' W 122°46'0 0.0
2017-Oct-29 09:30N 45°41' W 122°46'0 0.0
2017-Oct-29 08:57N 45°41' W 122°46'0 0.0
2017-Oct-29 08:21N 45°41' W 122°46'0 0.0
2017-Oct-29 08:00N 45°41' W 122°46'0 0.0
2017-Oct-29 07:24N 45°41' W 122°46'0 0.1
2017-Oct-29 07:00N 45°41' W 122°46'0 0.1
2017-Oct-29 06:30N 45°41' W 122°46'0 0.0
2017-Oct-29 06:00N 45°41' W 122°46'0 0.1
2017-Oct-29 05:30N 45°41' W 122°46'0 0.0
2017-Oct-29 05:00N 45°41' W 122°46'0 0.1
2017-Oct-29 04:27N 45°41' W 122°46'0 0.0
2017-Oct-29 03:57N 45°41' W 122°46'0 0.0
2017-Oct-28 19:00N 45°40' W 122°46'0 0.0
2017-Oct-28 18:30N 45°40' W 122°46'0 0.2
2017-Oct-28 18:00N 45°40' W 122°46'0 0.2
2017-Oct-28 17:30N 45°41' W 122°46'0 0.1
2017-Oct-28 16:57N 45°41' W 122°46'0 0.0
2017-Oct-28 16:30N 45°41' W 122°46'0 0.0
2017-Oct-28 16:00N 45°41' W 122°46'0 0.0
2017-Oct-28 15:30N 45°41' W 122°46'0 0.0
2017-Oct-28 15:00N 45°41' W 122°46'0 0.1
2017-Oct-28 14:24N 45°41' W 122°46'0 0.0
2017-Oct-28 14:00N 45°41' W 122°46'0 0.0
2017-Oct-28 13:30N 45°41' W 122°46'0 0.1
2017-Oct-28 13:00N 45°41' W 122°46'0 0.0
2017-Oct-28 12:30N 45°41' W 122°46'0 0.0
2017-Oct-28 12:00N 45°41' W 122°46'0 0.1
2017-Oct-28 11:21N 45°41' W 122°46'0 0.0
2017-Oct-28 10:57N 45°41' W 122°46'0 0.0
2017-Oct-28 10:30N 45°41' W 122°46'0 0.1
2017-Oct-28 09:57N 45°41' W 122°46'0 0.0
2017-Oct-28 09:30N 45°41' W 122°46'0 0.0
2017-Oct-28 09:00N 45°41' W 122°46'0 0.0
2017-Oct-28 08:30N 45°41' W 122°46'0 0.1
2017-Oct-28 08:00N 45°41' W 122°46'0 0.1
2017-Oct-28 07:30N 45°41' W 122°46'0 0.0
2017-Oct-28 07:00N 45°41' W 122°46'0 0.0
2017-Oct-28 06:30N 45°41' W 122°46'0 0.0
2017-Oct-28 05:57N 45°41' W 122°46'0 0.0
2017-Oct-28 05:30N 45°41' W 122°46'0 0.1
2017-Oct-28 05:00N 45°41' W 122°46'0 0.0
2017-Oct-28 04:30N 45°41' W 122°46'0 0.1
2017-Oct-28 03:57N 45°41' W 122°46'0 0.0
2017-Oct-28 03:30N 45°41' W 122°46'0 0.1
2017-Oct-28 03:00N 45°41' W 122°46'0 0.0
2017-Oct-28 02:30N 45°41' W 122°46'0 0.1
2017-Oct-28 02:00N 45°41' W 122°46'0 0.1
2017-Oct-28 01:30N 45°41' W 122°46'0 0.0
2017-Oct-28 00:51N 45°41' W 122°46'0 0.0
2017-Oct-28 00:30N 45°41' W 122°46'0 0.0
2017-Oct-27 23:57N 45°41' W 122°46'0 0.0
2017-Oct-27 23:27N 45°41' W 122°46'0 0.0
2017-Oct-27 22:57N 45°41' W 122°46'0 0.1
2017-Oct-27 22:30N 45°41' W 122°46'0 0.0
2017-Oct-27 22:00N 45°41' W 122°46'0 0.0
2017-Oct-27 21:30N 45°41' W 122°46'0 0.1
2017-Oct-27 20:57N 45°41' W 122°46'0 0.0
2017-Oct-27 20:30N 45°41' W 122°46'0 0.1
2017-Oct-27 19:57N 45°41' W 122°46'0 0.0
2017-Oct-27 19:30N 45°41' W 122°46'0 0.0
2017-Oct-27 18:51N 45°41' W 122°46'0 0.0
2017-Oct-27 18:27N 45°41' W 122°46'0 0.1
2017-Oct-27 18:00N 45°41' W 122°46'0 0.0
2017-Oct-27 17:30N 45°41' W 122°46'0 0.1
2017-Oct-27 17:00N 45°41' W 122°46'0 0.1
2017-Oct-27 16:27N 45°41' W 122°46'0 0.0
2017-Oct-27 16:00N 45°41' W 122°46'0 0.0
2017-Oct-27 15:27N 45°41' W 122°46'0 0.1
2017-Oct-27 15:00N 45°41' W 122°46'0 0.1
2017-Oct-27 14:30N 45°41' W 122°46'0 0.0
2017-Oct-27 14:00N 45°41' W 122°46'0 0.0
2017-Oct-27 13:27N 45°41' W 122°46'0 0.0
2017-Oct-27 12:51N 45°41' W 122°46'0 0.0
2017-Oct-27 12:30N 45°41' W 122°46'0 0.1
2017-Oct-27 11:54N 45°41' W 122°46'0 0.0
2017-Oct-27 11:30N 45°41' W 122°46'0 0.1
2017-Oct-27 11:00N 45°41' W 122°46'0 0.0
2017-Oct-27 10:21N 45°41' W 122°46'0 0.0
2017-Oct-27 10:00N 45°41' W 122°46'0 0.0
2017-Oct-27 09:27N 45°41' W 122°46'0 0.0
2017-Oct-27 08:57N 45°41' W 122°46'0 0.1
2017-Oct-27 08:30N 45°41' W 122°46'0 0.0
2017-Oct-27 07:57N 45°41' W 122°46'0 0.0
2017-Oct-27 07:30N 45°41' W 122°46'0 0.0
2017-Oct-27 07:00N 45°41' W 122°46'0 0.0
2017-Oct-27 06:30N 45°41' W 122°46'0 0.0
2017-Oct-27 06:00N 45°41' W 122°46'0 0.1
2017-Oct-27 05:27N 45°41' W 122°46'0 0.3
2017-Oct-27 04:57N 45°40' W 122°46'0 0.1
2017-Oct-27 04:30N 45°40' W 122°46'0 0.0
2017-Oct-27 04:00N 45°40' W 122°46'0 0.1
2017-Oct-27 03:30N 45°40' W 122°46'0 0.2
2017-Oct-27 02:48N 45°41' W 122°46'0 0.2
2017-Oct-27 02:30N 45°41' W 122°46'0 0.0
2017-Oct-27 01:54N 45°41' W 122°46'0 0.0
2017-Oct-27 01:30N 45°41' W 122°46'0 0.0
2017-Oct-27 01:00N 45°41' W 122°46'0 0.1
2017-Oct-27 00:27N 45°41' W 122°46'0 0.0
2017-Oct-27 00:00N 45°41' W 122°46'0 0.1
2017-Oct-26 23:30N 45°41' W 122°46'0 0.1
2017-Oct-26 23:00N 45°41' W 122°46'0 0.1
2017-Oct-26 22:27N 45°41' W 122°46'0 0.0
2017-Oct-26 22:00N 45°41' W 122°46'0 0.0
2017-Oct-26 21:30N 45°41' W 122°46'0 0.0
2017-Oct-26 21:00N 45°41' W 122°46'0 0.0
2017-Oct-26 20:30N 45°41' W 122°46'0 0.0
2017-Oct-26 19:57N 45°41' W 122°46'0 0.0
2017-Oct-26 19:24N 45°41' W 122°46'0 0.1
2017-Oct-26 18:57N 45°41' W 122°46'0 0.1
2017-Oct-26 18:30N 45°40' W 122°46'0 0.1
2017-Oct-26 17:51N 45°40' W 122°46'0 0.1
2017-Oct-26 17:30N 45°40' W 122°46'0 0.1
2017-Oct-26 16:57N 45°40' W 122°46'0 0.2
2017-Oct-26 16:27N 45°40' W 122°46'0 0.2
2017-Oct-26 15:57N 45°41' W 122°46'0 0.1
2017-Oct-26 15:30N 45°41' W 122°46'0 0.0
2017-Oct-26 15:00N 45°41' W 122°46'0 0.1
2017-Oct-26 14:30N 45°41' W 122°46'0 0.0
2017-Oct-26 14:00N 45°41' W 122°46'0 0.1
2017-Oct-26 13:30N 45°41' W 122°46'0 0.0
2017-Oct-26 13:00N 45°41' W 122°46'0 0.0
2017-Oct-26 12:27N 45°41' W 122°46'0 0.0
2017-Oct-26 12:00N 45°41' W 122°46'0 0.1
2017-Oct-26 11:30N 45°41' W 122°46'0 0.0
2017-Oct-26 10:57N 45°41' W 122°46'0 0.1
2017-Oct-26 10:30N 45°41' W 122°46'0 0.0
2017-Oct-26 09:57N 45°41' W 122°46'0 0.0
2017-Oct-26 09:27N 45°41' W 122°46'0 0.1
2017-Oct-26 08:54N 45°41' W 122°46'0 0.0
2017-Oct-26 08:30N 45°41' W 122°46'0 0.1
2017-Oct-26 08:00N 45°41' W 122°46'0 0.0
2017-Oct-26 07:21N 45°41' W 122°46'0 0.0
2017-Oct-26 07:00N 45°41' W 122°46'0 0.0
2017-Oct-26 06:27N 45°41' W 122°46'0 0.0
2017-Oct-26 06:00N 45°41' W 122°46'0 0.0
2017-Oct-26 05:30N 45°41' W 122°46'0 0.0
2017-Oct-26 05:00N 45°41' W 122°46'0 0.2
2017-Oct-26 04:30N 45°41' W 122°46'0 0.1
2017-Oct-26 04:00N 45°40' W 122°46'0 0.0
2017-Oct-26 03:30N 45°41' W 122°46'0 0.1
2017-Oct-26 03:00N 45°41' W 122°46'0 0.0
2017-Oct-26 02:30N 45°41' W 122°46'0 0.1
2017-Oct-26 01:57N 45°41' W 122°46'0 0.0
2017-Oct-26 01:30N 45°41' W 122°46'0 0.0
2017-Oct-26 01:00N 45°41' W 122°46'0 0.0
2017-Oct-26 00:27N 45°41' W 122°46'0 0.0
2017-Oct-26 00:00N 45°41' W 122°46'0 0.0
2017-Oct-25 23:27N 45°41' W 122°46'0 0.0
2017-Oct-25 22:51N 45°41' W 122°46'0 0.0
2017-Oct-25 22:30N 45°41' W 122°46'0 0.0
2017-Oct-25 22:00N 45°41' W 122°46'0 0.0
2017-Oct-25 21:30N 45°41' W 122°46'0 0.0
2017-Oct-25 21:00N 45°41' W 122°46'0 0.0
2017-Oct-25 20:27N 45°41' W 122°46'0 0.0
2017-Oct-25 19:57N 45°41' W 122°46'0 0.0
2017-Oct-25 19:27N 45°41' W 122°46'0 0.0
2017-Oct-25 19:00N 45°41' W 122°46'0 0.0
2017-Oct-25 18:30N 45°41' W 122°46'0 0.0
2017-Oct-25 17:57N 45°41' W 122°46'0 0.0
2017-Oct-25 17:30N 45°41' W 122°46'0 0.0
2017-Oct-25 16:51N 45°41' W 122°46'0 0.0
2017-Oct-25 16:24N 45°41' W 122°46'0 0.0
2017-Oct-25 15:51N 45°41' W 122°46'0 0.0
2017-Oct-25 15:27N 45°41' W 122°46'0 0.0
2017-Oct-25 15:00N 45°41' W 122°46'0 0.0
2017-Oct-25 14:27N 45°41' W 122°46'0 0.0
2017-Oct-25 13:57N 45°41' W 122°46'0 0.0
2017-Oct-25 13:30N 45°41' W 122°46'0 0.0
2017-Oct-25 13:00N 45°41' W 122°46'0 0.0
2017-Oct-25 12:30N 45°41' W 122°46'0 0.0
2017-Oct-25 12:00N 45°41' W 122°46'0 0.0
2017-Oct-25 11:30N 45°41' W 122°46'0 0.0
2017-Oct-25 11:00N 45°41' W 122°46'0 0.0
2017-Oct-25 10:30N 45°41' W 122°46'0 0.0
2017-Oct-25 10:00N 45°41' W 122°46'0 0.0
2017-Oct-25 09:27N 45°41' W 122°46'0 0.0
2017-Oct-25 09:00N 45°41' W 122°46'0 0.0
2017-Oct-25 08:30N 45°41' W 122°46'0 0.0
2017-Oct-25 08:00N 45°41' W 122°46'0 0.0
2017-Oct-25 07:24N 45°41' W 122°46'0 0.0
2017-Oct-25 07:00N 45°41' W 122°46'0 0.0
2017-Oct-25 06:30N 45°41' W 122°46'0 0.0
2017-Oct-25 06:00N 45°41' W 122°46'0 0.0
2017-Oct-25 05:30N 45°41' W 122°46'0 0.0
2017-Oct-25 04:57N 45°41' W 122°46'0 0.0
2017-Oct-25 04:27N 45°41' W 122°46'0 0.0
2017-Oct-25 03:51N 45°41' W 122°46'0 0.0
2017-Oct-25 03:30N 45°41' W 122°46'0 0.0
2017-Oct-25 02:57N 45°41' W 122°46'0 0.0
2017-Oct-25 02:30N 45°41' W 122°46'0 0.0
2017-Oct-25 02:00N 45°41' W 122°46'0 0.0
2017-Oct-25 01:27N 45°41' W 122°46'0 0.0
2017-Oct-25 00:51N 45°41' W 122°46'0 0.0
2017-Oct-25 00:27N 45°41' W 122°46'0 0.0
2017-Oct-25 00:00N 45°41' W 122°46'0 0.0
2017-Oct-24 23:30N 45°41' W 122°46'0 0.0
2017-Oct-24 23:00N 45°41' W 122°46'0 0.0
2017-Oct-24 22:27N 45°41' W 122°46'0 0.0
2017-Oct-24 22:00N 45°41' W 122°46'0 0.0
2017-Oct-24 21:27N 45°41' W 122°46'0 0.0
2017-Oct-24 20:57N 45°41' W 122°46'0 0.0
2017-Oct-24 20:27N 45°41' W 122°46'0 0.0
2017-Oct-24 19:57N 45°41' W 122°46'0 0.0
2017-Oct-24 19:30N 45°41' W 122°46'0 0.0
2017-Oct-24 19:00N 45°41' W 122°46'0 0.0
2017-Oct-24 18:12N 45°41' W 122°46'0 0.0
2017-Oct-24 17:57N 45°41' W 122°46'0 0.0
2017-Oct-24 17:24N 45°41' W 122°46'0 0.0
2017-Oct-24 16:57N 45°41' W 122°46'0 0.0
2017-Oct-24 16:30N 45°41' W 122°46'0 0.0
2017-Oct-24 15:57N 45°41' W 122°46'0 0.0
2017-Oct-24 15:30N 45°41' W 122°46'0 0.0
2017-Oct-24 15:00N 45°41' W 122°46'0 0.0
2017-Oct-24 14:30N 45°41' W 122°46'0 0.0
2017-Oct-24 14:00N 45°41' W 122°46'0 0.0
2017-Oct-24 13:30N 45°41' W 122°46'0 0.0
2017-Oct-24 13:00N 45°41' W 122°46'0 0.0
2017-Oct-24 12:30N 45°41' W 122°46'0 0.0
2017-Oct-24 11:57N 45°41' W 122°46'0 0.0
2017-Oct-24 11:30N 45°41' W 122°46'0 0.0
2017-Oct-24 11:00N 45°41' W 122°46'0 0.0
2017-Oct-24 10:30N 45°41' W 122°46'0 0.0
2017-Oct-24 10:00N 45°41' W 122°46'0 0.0
2017-Oct-24 09:30N 45°41' W 122°46'0 0.0
2017-Oct-24 09:00N 45°41' W 122°46'0 0.0
2017-Oct-24 08:30N 45°41' W 122°46'0 0.0
2017-Oct-24 08:00N 45°41' W 122°46'0 0.0
2017-Oct-24 07:27N 45°41' W 122°46'0 0.0
2017-Oct-24 06:57N 45°41' W 122°46'0 0.0
2017-Oct-24 06:30N 45°41' W 122°46'0 0.0
2017-Oct-24 06:00N 45°41' W 122°46'0 0.0
2017-Oct-24 05:30N 45°41' W 122°46'0 0.0
2017-Oct-24 05:00N 45°41' W 122°46'0 0.0
2017-Oct-24 04:30N 45°41' W 122°46'0 0.0
2017-Oct-24 04:00N 45°41' W 122°46'0 0.0
2017-Oct-24 03:30N 45°41' W 122°46'0 0.0
2017-Oct-24 03:00N 45°41' W 122°46'0 0.0
2017-Oct-24 02:30N 45°41' W 122°46'0 0.0
2017-Oct-24 02:00N 45°41' W 122°46'0 0.0
2017-Oct-24 01:30N 45°41' W 122°46'0 0.0
2017-Oct-24 01:00N 45°41' W 122°46'0 0.0
2017-Oct-24 00:30N 45°41' W 122°46'0 0.0
2017-Oct-24 00:00N 45°41' W 122°46'0 0.0
2017-Oct-23 23:27N 45°41' W 122°46'0 0.0
2017-Oct-23 23:00N 45°41' W 122°46'0 0.0
2017-Oct-23 22:30N 45°41' W 122°46'0 0.0
2017-Oct-23 22:00N 45°41' W 122°46'0 0.0
2017-Oct-23 21:27N 45°41' W 122°46'0 0.0
2017-Oct-23 20:57N 45°41' W 122°46'0 0.0
2017-Oct-23 20:27N 45°41' W 122°46'  
Track history (hours):
 
Tides and Currents Weather Stations Pressure Air Temp Water Temp Dewpoint Dewpoint Depression Visibility Wind Speed Wind Dir Waves Ship Positions

African Dove

Last reported at 2017-Nov-02 20:24 UTC. Time now 2017-Nov-21 17:17 UTC.
Position N 46°00' W 125°31'.
Warning: this ship's position is 18 days out of date.

Length 180 m; draft 10.2 m.

Type: Cargo ship. MMSI: 311000205.

Date/timePositionNaut miles runAvg speedWind from/ knotsBaromVisibWave heightAir tempDewpointWater temp
2017-Nov-02 20:24N 46°00' W 125°31'4 8.7
2017-Nov-02 20:00N 46°01' W 125°26'4 8.6
2017-Nov-02 19:30N 46°02' W 125°20'4 8.8
2017-Nov-02 19:00N 46°04' W 125°14'4 8.7
2017-Nov-02 18:30N 46°05' W 125°08'4 8.8
2017-Nov-02 18:00N 46°06' W 125°02'4 9.0
2017-Nov-02 17:30N 46°07' W 124°56'5 9.1
2017-Nov-02 17:00N 46°09' W 124°49'5 9.3
2017-Nov-02 16:30N 46°10' W 124°43'5 9.4
2017-Nov-02 16:00N 46°10' W 124°36'5 9.7
2017-Nov-02 15:30N 46°11' W 124°29'5 9.8
2017-Nov-02 15:00N 46°11' W 124°22'510.2
2017-Nov-02 14:30N 46°11' W 124°15'510.2
2017-Nov-02 14:00N 46°13' W 124°08'5 9.7
2017-Nov-02 13:30N 46°15' W 124°02'612.1
2017-Nov-02 13:00N 46°12' W 123°55'510.3
2017-Nov-02 12:30N 46°12' W 123°48'612.2
2017-Nov-02 12:00N 46°15' W 123°40'713.0
2017-Nov-02 11:30N 46°16' W 123°31'510.3
2017-Nov-02 11:00N 46°12' W 123°26'5 9.7
2017-Nov-02 10:30N 46°09' W 123°21'611.3
2017-Nov-02 10:00N 46°10' W 123°13'510.1
2017-Nov-02 09:30N 46°11' W 123°06'510.7
2017-Nov-02 09:00N 46°08' W 122°60'713.5
2017-Nov-02 08:30N 46°03' W 122°53'2 4.0
2017-Nov-02 08:00N 46°01' W 122°51'510.3
2017-Nov-02 07:30N 45°56' W 122°48'612.0
2017-Nov-02 07:00N 45°50' W 122°47'612.2
2017-Nov-02 06:30N 45°44' W 122°46'611.0
2017-Nov-02 06:00N 45°39' W 122°46'3 5.4
2017-Nov-02 05:30N 45°36' W 122°47'0 0.1
2017-Nov-02 04:56N 45°36' W 122°47'0 0.0
2017-Nov-02 04:26N 45°36' W 122°47'0 0.0
2017-Nov-02 03:26N 45°36' W 122°47'0 0.0
2017-Nov-02 02:59N 45°36' W 122°47'0 0.0
2017-Nov-02 02:29N 45°36' W 122°47'0 0.1
2017-Nov-02 01:53N 45°36' W 122°46'0 0.0
2017-Nov-02 01:29N 45°36' W 122°46'0 0.0
2017-Nov-02 00:53N 45°36' W 122°46'0 0.0
2017-Nov-02 00:29N 45°36' W 122°46'0 0.0
2017-Nov-01 23:53N 45°36' W 122°46'0 0.0
2017-Nov-01 23:29N 45°36' W 122°46'0 0.0
2017-Nov-01 22:53N 45°36' W 122°46'0 0.0
2017-Nov-01 22:26N 45°36' W 122°46'0 0.0
2017-Nov-01 21:59N 45°36' W 122°46'0 0.0
2017-Nov-01 21:23N 45°36' W 122°46'0 0.0
2017-Nov-01 20:56N 45°36' W 122°46'0 0.0
2017-Nov-01 20:29N 45°36' W 122°46'0 0.0
2017-Nov-01 19:59N 45°36' W 122°46'0 0.0
2017-Nov-01 19:26N 45°36' W 122°46'0 0.0
2017-Nov-01 18:59N 45°36' W 122°46'0 0.0
2017-Nov-01 18:29N 45°36' W 122°46'0 0.0
2017-Nov-01 01:59N 45°36' W 122°47'0 0.0
2017-Nov-01 01:23N 45°36' W 122°47'0 0.0
2017-Nov-01 00:59N 45°36' W 122°47'0 0.1
2017-Nov-01 00:26N 45°36' W 122°46'0 0.0
2017-Oct-31 23:56N 45°36' W 122°46'0 0.0
2017-Oct-31 23:29N 45°36' W 122°46'0 0.0
2017-Oct-31 22:59N 45°36' W 122°46'0 0.0
2017-Oct-31 22:26N 45°36' W 122°46'0 0.0
2017-Oct-31 21:59N 45°36' W 122°46'0 0.0
2017-Oct-31 21:29N 45°36' W 122°46'0 0.0
2017-Oct-31 20:59N 45°36' W 122°46'0 0.0
2017-Oct-31 20:29N 45°36' W 122°46'0 0.0
2017-Oct-31 19:59N 45°36' W 122°46'0 0.0
2017-Oct-31 19:17N 45°36' W 122°46'0 0.0
2017-Oct-31 18:59N 45°36' W 122°46'0 0.1
2017-Oct-31 18:29N 45°36' W 122°47'0 0.0
2017-Oct-31 17:59N 45°36' W 122°47'0 0.0
2017-Oct-31 17:29N 45°36' W 122°47'0 0.0
2017-Oct-31 16:41N 45°36' W 122°47'0 0.0
2017-Oct-31 16:20N 45°36' W 122°47'0 0.0
2017-Oct-31 15:59N 45°36' W 122°47'0 0.0
2017-Oct-31 15:23N 45°36' W 122°47'0 0.0
2017-Oct-31 14:47N 45°36' W 122°47'0 0.0
2017-Oct-31 14:29N 45°36' W 122°47'0 0.0
2017-Oct-31 13:59N 45°36' W 122°47'0 0.0
2017-Oct-31 13:26N 45°36' W 122°47'0 0.0
2017-Oct-31 12:59N 45°36' W 122°47'0 0.0
2017-Oct-31 12:29N 45°36' W 122°47'0 0.0
2017-Oct-31 11:56N 45°36' W 122°47'0 0.0
2017-Oct-31 11:23N 45°36' W 122°47'0 0.0
2017-Oct-31 10:56N 45°36' W 122°47'0 0.0
2017-Oct-31 10:29N 45°36' W 122°47'0 0.0
2017-Oct-31 09:53N 45°36' W 122°47'0 0.0
2017-Oct-31 09:23N 45°36' W 122°47'0 0.0
2017-Oct-31 08:59N 45°36' W 122°47'0 0.0
2017-Oct-31 08:26N 45°36' W 122°47'0 0.0
2017-Oct-31 07:11N 45°36' W 122°47'0 0.0
2017-Oct-31 06:56N 45°36' W 122°47'0 0.0
2017-Oct-31 06:29N 45°36' W 122°47'0 0.0
2017-Oct-31 05:38N 45°36' W 122°47'0 0.0
2017-Oct-31 05:29N 45°36' W 122°47'0 0.0
2017-Oct-31 04:59N 45°36' W 122°47'0 0.0
2017-Oct-31 04:26N 45°36' W 122°47'0 0.0
2017-Oct-31 03:59N 45°36' W 122°47'0 0.0
2017-Oct-31 03:29N 45°36' W 122°47'0 0.0
2017-Oct-31 02:56N 45°36' W 122°47'0 0.0
2017-Oct-31 02:11N 45°36' W 122°47'0 0.0
2017-Oct-31 01:59N 45°36' W 122°47'0 0.0
2017-Oct-31 01:23N 45°36' W 122°47'0 0.0
2017-Oct-31 00:50N 45°36' W 122°47'0 0.0
2017-Oct-31 00:29N 45°36' W 122°47'0 0.0
2017-Oct-30 23:26N 45°36' W 122°47'0 0.0
2017-Oct-30 22:59N 45°36' W 122°47'0 0.0
2017-Oct-30 22:26N 45°36' W 122°47'0 0.0
2017-Oct-30 21:59N 45°36' W 122°47'0 0.0
2017-Oct-30 21:26N 45°36' W 122°47'0 0.0
2017-Oct-30 20:56N 45°36' W 122°47'0 0.0
2017-Oct-30 20:29N 45°36' W 122°47'0 0.0
2017-Oct-30 19:59N 45°36' W 122°47'0 0.0
2017-Oct-30 19:29N 45°36' W 122°47'0 0.0
2017-Oct-30 18:50N 45°36' W 122°47'0 0.1
2017-Oct-30 18:26N 45°36' W 122°46'0 0.0
2017-Oct-30 17:56N 45°36' W 122°46'0 0.0
2017-Oct-30 17:29N 45°36' W 122°46'0 0.0
2017-Oct-30 16:53N 45°36' W 122°46'0 0.0
2017-Oct-30 16:29N 45°36' W 122°46'0 0.0
2017-Oct-30 15:56N 45°36' W 122°46'0 0.0
2017-Oct-30 15:26N 45°36' W 122°46'0 0.0
2017-Oct-30 14:59N 45°36' W 122°46'0 0.0
2017-Oct-30 13:59N 45°36' W 122°46'0 0.0
2017-Oct-30 13:29N 45°36' W 122°46'0 0.0
2017-Oct-30 12:44N 45°36' W 122°46'0 0.0
2017-Oct-30 12:29N 45°36' W 122°46'0 0.0
2017-Oct-30 11:56N 45°36' W 122°46'0 0.0
2017-Oct-30 11:29N 45°36' W 122°46'0 0.3
2017-Oct-30 11:00N 45°36' W 122°47'3 5.4
2017-Oct-30 10:30N 45°39' W 122°46'2 3.7
2017-Oct-30 10:00N 45°41' W 122°46'0 0.1
2017-Oct-30 09:18N 45°41' W 122°46'0 0.0
2017-Oct-30 09:00N 45°41' W 122°46'0 0.2
2017-Oct-30 08:30N 45°40' W 122°46'0 0.1
2017-Oct-30 08:00N 45°40' W 122°46'0 0.1
2017-Oct-30 07:30N 45°40' W 122°46'0 0.2
2017-Oct-30 07:00N 45°40' W 122°46'0 0.1
2017-Oct-30 06:06N 45°41' W 122°46'0 0.1
2017-Oct-30 06:00N 45°41' W 122°46'0 0.1
2017-Oct-30 05:30N 45°41' W 122°46'0 0.0
2017-Oct-30 04:57N 45°41' W 122°46'0 0.0
2017-Oct-30 04:09N 45°41' W 122°46'0 0.0
2017-Oct-30 03:54N 45°41' W 122°46'0 0.0
2017-Oct-30 03:27N 45°41' W 122°46'0 0.0
2017-Oct-30 02:45N 45°41' W 122°46'0 0.0
2017-Oct-30 02:30N 45°41' W 122°46'0 0.0
2017-Oct-30 01:57N 45°41' W 122°46'0 0.0
2017-Oct-30 01:27N 45°41' W 122°46'0 0.0
2017-Oct-30 01:00N 45°41' W 122°46'0 0.0
2017-Oct-30 00:30N 45°41' W 122°46'0 0.0
2017-Oct-29 23:57N 45°41' W 122°46'0 0.0
2017-Oct-29 23:30N 45°41' W 122°46'0 0.0
2017-Oct-29 23:00N 45°41' W 122°46'0 0.0
2017-Oct-29 22:30N 45°41' W 122°46'0 0.0
2017-Oct-29 22:00N 45°41' W 122°46'0 0.4
2017-Oct-29 21:30N 45°40' W 122°46'0 0.1
2017-Oct-29 21:00N 45°40' W 122°46'0 0.0
2017-Oct-29 20:27N 45°40' W 122°46'0 0.0
2017-Oct-29 20:00N 45°40' W 122°46'0 0.0
2017-Oct-29 19:30N 45°40' W 122°46'0 0.1
2017-Oct-29 19:00N 45°40' W 122°46'0 0.3
2017-Oct-29 18:30N 45°41' W 122°46'0 0.1
2017-Oct-29 18:00N 45°41' W 122°46'0 0.0
2017-Oct-29 17:30N 45°41' W 122°46'0 0.0
2017-Oct-29 17:00N 45°41' W 122°46'0 0.1
2017-Oct-29 16:30N 45°41' W 122°46'0 0.0
2017-Oct-29 16:00N 45°41' W 122°46'0 0.0
2017-Oct-29 15:27N 45°41' W 122°46'0 0.0
2017-Oct-29 15:00N 45°41' W 122°46'0 0.0
2017-Oct-29 14:24N 45°41' W 122°46'0 0.0
2017-Oct-29 13:57N 45°41' W 122°46'0 0.0
2017-Oct-29 13:30N 45°41' W 122°46'0 0.0
2017-Oct-29 12:57N 45°41' W 122°46'0 0.1
2017-Oct-29 12:24N 45°41' W 122°46'0 0.1
2017-Oct-29 12:00N 45°41' W 122°46'0 0.0
2017-Oct-29 11:30N 45°41' W 122°46'0 0.0
2017-Oct-29 11:00N 45°41' W 122°46'0 0.0
2017-Oct-29 10:30N 45°41' W 122°46'0 0.0
2017-Oct-29 09:57N 45°41' W 122°46'0 0.0
2017-Oct-29 09:30N 45°41' W 122°46'0 0.0
2017-Oct-29 08:57N 45°41' W 122°46'0 0.0
2017-Oct-29 08:21N 45°41' W 122°46'0 0.0
2017-Oct-29 08:00N 45°41' W 122°46'0 0.0
2017-Oct-29 07:24N 45°41' W 122°46'0 0.1
2017-Oct-29 07:00N 45°41' W 122°46'0 0.1
2017-Oct-29 06:30N 45°41' W 122°46'0 0.0
2017-Oct-29 06:00N 45°41' W 122°46'0 0.1
2017-Oct-29 05:30N 45°41' W 122°46'0 0.0
2017-Oct-29 05:00N 45°41' W 122°46'0 0.1
2017-Oct-29 04:27N 45°41' W 122°46'0 0.0
2017-Oct-29 03:57N 45°41' W 122°46'0 0.0
2017-Oct-28 19:00N 45°40' W 122°46'0 0.0
2017-Oct-28 18:30N 45°40' W 122°46'0 0.2
2017-Oct-28 18:00N 45°40' W 122°46'0 0.2
2017-Oct-28 17:30N 45°41' W 122°46'0 0.1
2017-Oct-28 16:57N 45°41' W 122°46'0 0.0
2017-Oct-28 16:30N 45°41' W 122°46'0 0.0
2017-Oct-28 16:00N 45°41' W 122°46'0 0.0
2017-Oct-28 15:30N 45°41' W 122°46'0 0.0
2017-Oct-28 15:00N 45°41' W 122°46'0 0.1
2017-Oct-28 14:24N 45°41' W 122°46'0 0.0
2017-Oct-28 14:00N 45°41' W 122°46'0 0.0
2017-Oct-28 13:30N 45°41' W 122°46'0 0.1
2017-Oct-28 13:00N 45°41' W 122°46'0 0.0
2017-Oct-28 12:30N 45°41' W 122°46'0 0.0
2017-Oct-28 12:00N 45°41' W 122°46'0 0.1
2017-Oct-28 11:21N 45°41' W 122°46'0 0.0
2017-Oct-28 10:57N 45°41' W 122°46'0 0.0
2017-Oct-28 10:30N 45°41' W 122°46'0 0.1
2017-Oct-28 09:57N 45°41' W 122°46'0 0.0
2017-Oct-28 09:30N 45°41' W 122°46'0 0.0
2017-Oct-28 09:00N 45°41' W 122°46'0 0.0
2017-Oct-28 08:30N 45°41' W 122°46'0 0.1
2017-Oct-28 08:00N 45°41' W 122°46'0 0.1
2017-Oct-28 07:30N 45°41' W 122°46'0 0.0
2017-Oct-28 07:00N 45°41' W 122°46'0 0.0
2017-Oct-28 06:30N 45°41' W 122°46'0 0.0
2017-Oct-28 05:57N 45°41' W 122°46'0 0.0
2017-Oct-28 05:30N 45°41' W 122°46'0 0.1
2017-Oct-28 05:00N 45°41' W 122°46'0 0.0
2017-Oct-28 04:30N 45°41' W 122°46'0 0.1
2017-Oct-28 03:57N 45°41' W 122°46'0 0.0
2017-Oct-28 03:30N 45°41' W 122°46'0 0.1
2017-Oct-28 03:00N 45°41' W 122°46'0 0.0
2017-Oct-28 02:30N 45°41' W 122°46'0 0.1
2017-Oct-28 02:00N 45°41' W 122°46'0 0.1
2017-Oct-28 01:30N 45°41' W 122°46'0 0.0
2017-Oct-28 00:51N 45°41' W 122°46'0 0.0
2017-Oct-28 00:30N 45°41' W 122°46'0 0.0
2017-Oct-27 23:57N 45°41' W 122°46'0 0.0
2017-Oct-27 23:27N 45°41' W 122°46'0 0.0
2017-Oct-27 22:57N 45°41' W 122°46'0 0.1
2017-Oct-27 22:30N 45°41' W 122°46'0 0.0
2017-Oct-27 22:00N 45°41' W 122°46'0 0.0
2017-Oct-27 21:30N 45°41' W 122°46'0 0.1
2017-Oct-27 20:57N 45°41' W 122°46'0 0.0
2017-Oct-27 20:30N 45°41' W 122°46'0 0.1
2017-Oct-27 19:57N 45°41' W 122°46'0 0.0
2017-Oct-27 19:30N 45°41' W 122°46'0 0.0
2017-Oct-27 18:51N 45°41' W 122°46'0 0.0
2017-Oct-27 18:27N 45°41' W 122°46'0 0.1
2017-Oct-27 18:00N 45°41' W 122°46'0 0.0
2017-Oct-27 17:30N 45°41' W 122°46'0 0.1
2017-Oct-27 17:00N 45°41' W 122°46'0 0.1
2017-Oct-27 16:27N 45°41' W 122°46'0 0.0
2017-Oct-27 16:00N 45°41' W 122°46'0 0.0
2017-Oct-27 15:27N 45°41' W 122°46'0 0.1
2017-Oct-27 15:00N 45°41' W 122°46'0 0.1
2017-Oct-27 14:30N 45°41' W 122°46'0 0.0
2017-Oct-27 14:00N 45°41' W 122°46'0 0.0
2017-Oct-27 13:27N 45°41' W 122°46'0 0.0
2017-Oct-27 12:51N 45°41' W 122°46'0 0.0
2017-Oct-27 12:30N 45°41' W 122°46'0 0.1
2017-Oct-27 11:54N 45°41' W 122°46'0 0.0
2017-Oct-27 11:30N 45°41' W 122°46'0 0.1
2017-Oct-27 11:00N 45°41' W 122°46'0 0.0
2017-Oct-27 10:21N 45°41' W 122°46'0 0.0
2017-Oct-27 10:00N 45°41' W 122°46'0 0.0
2017-Oct-27 09:27N 45°41' W 122°46'0 0.0
2017-Oct-27 08:57N 45°41' W 122°46'0 0.1
2017-Oct-27 08:30N 45°41' W 122°46'0 0.0
2017-Oct-27 07:57N 45°41' W 122°46'0 0.0
2017-Oct-27 07:30N 45°41' W 122°46'0 0.0
2017-Oct-27 07:00N 45°41' W 122°46'0 0.0
2017-Oct-27 06:30N 45°41' W 122°46'0 0.0
2017-Oct-27 06:00N 45°41' W 122°46'0 0.1
2017-Oct-27 05:27N 45°41' W 122°46'0 0.3
2017-Oct-27 04:57N 45°40' W 122°46'0 0.1
2017-Oct-27 04:30N 45°40' W 122°46'0 0.0
2017-Oct-27 04:00N 45°40' W 122°46'0 0.1
2017-Oct-27 03:30N 45°40' W 122°46'0 0.2
2017-Oct-27 02:48N 45°41' W 122°46'0 0.2
2017-Oct-27 02:30N 45°41' W 122°46'0 0.0
2017-Oct-27 01:54N 45°41' W 122°46'0 0.0
2017-Oct-27 01:30N 45°41' W 122°46'0 0.0
2017-Oct-27 01:00N 45°41' W 122°46'0 0.1
2017-Oct-27 00:27N 45°41' W 122°46'0 0.0
2017-Oct-27 00:00N 45°41' W 122°46'0 0.1
2017-Oct-26 23:30N 45°41' W 122°46'0 0.1
2017-Oct-26 23:00N 45°41' W 122°46'0 0.1
2017-Oct-26 22:27N 45°41' W 122°46'0 0.0
2017-Oct-26 22:00N 45°41' W 122°46'0 0.0
2017-Oct-26 21:30N 45°41' W 122°46'0 0.0
2017-Oct-26 21:00N 45°41' W 122°46'0 0.0
2017-Oct-26 20:30N 45°41' W 122°46'0 0.0
2017-Oct-26 19:57N 45°41' W 122°46'0 0.0
2017-Oct-26 19:24N 45°41' W 122°46'0 0.1
2017-Oct-26 18:57N 45°41' W 122°46'0 0.1
2017-Oct-26 18:30N 45°40' W 122°46'0 0.1
2017-Oct-26 17:51N 45°40' W 122°46'0 0.1
2017-Oct-26 17:30N 45°40' W 122°46'0 0.1
2017-Oct-26 16:57N 45°40' W 122°46'0 0.2
2017-Oct-26 16:27N 45°40' W 122°46'0 0.2
2017-Oct-26 15:57N 45°41' W 122°46'0 0.1
2017-Oct-26 15:30N 45°41' W 122°46'0 0.0
2017-Oct-26 15:00N 45°41' W 122°46'0 0.1
2017-Oct-26 14:30N 45°41' W 122°46'0 0.0
2017-Oct-26 14:00N 45°41' W 122°46'0 0.1
2017-Oct-26 13:30N 45°41' W 122°46'0 0.0
2017-Oct-26 13:00N 45°41' W 122°46'0 0.0
2017-Oct-26 12:27N 45°41' W 122°46'0 0.0
2017-Oct-26 12:00N 45°41' W 122°46'0 0.1
2017-Oct-26 11:30N 45°41' W 122°46'0 0.0
2017-Oct-26 10:57N 45°41' W 122°46'0 0.1
2017-Oct-26 10:30N 45°41' W 122°46'0 0.0
2017-Oct-26 09:57N 45°41' W 122°46'0 0.0
2017-Oct-26 09:27N 45°41' W 122°46'0 0.1
2017-Oct-26 08:54N 45°41' W 122°46'0 0.0
2017-Oct-26 08:30N 45°41' W 122°46'0 0.1
2017-Oct-26 08:00N 45°41' W 122°46'0 0.0
2017-Oct-26 07:21N 45°41' W 122°46'0 0.0
2017-Oct-26 07:00N 45°41' W 122°46'0 0.0
2017-Oct-26 06:27N 45°41' W 122°46'0 0.0
2017-Oct-26 06:00N 45°41' W 122°46'0 0.0
2017-Oct-26 05:30N 45°41' W 122°46'0 0.0
2017-Oct-26 05:00N 45°41' W 122°46'0 0.2
2017-Oct-26 04:30N 45°41' W 122°46'0 0.1
2017-Oct-26 04:00N 45°40' W 122°46'0 0.0
2017-Oct-26 03:30N 45°41' W 122°46'0 0.1
2017-Oct-26 03:00N 45°41' W 122°46'0 0.0
2017-Oct-26 02:30N 45°41' W 122°46'0 0.1
2017-Oct-26 01:57N 45°41' W 122°46'0 0.0
2017-Oct-26 01:30N 45°41' W 122°46'0 0.0
2017-Oct-26 01:00N 45°41' W 122°46'0 0.0
2017-Oct-26 00:27N 45°41' W 122°46'0 0.0
2017-Oct-26 00:00N 45°41' W 122°46'0 0.0
2017-Oct-25 23:27N 45°41' W 122°46'0 0.0
2017-Oct-25 22:51N 45°41' W 122°46'0 0.0
2017-Oct-25 22:30N 45°41' W 122°46'0 0.0
2017-Oct-25 22:00N 45°41' W 122°46'0 0.0
2017-Oct-25 21:30N 45°41' W 122°46'0 0.0
2017-Oct-25 21:00N 45°41' W 122°46'0 0.0
2017-Oct-25 20:27N 45°41' W 122°46'0 0.0
2017-Oct-25 19:57N 45°41' W 122°46'0 0.0
2017-Oct-25 19:27N 45°41' W 122°46'0 0.0
2017-Oct-25 19:00N 45°41' W 122°46'0 0.0
2017-Oct-25 18:30N 45°41' W 122°46'0 0.0
2017-Oct-25 17:57N 45°41' W 122°46'0 0.0
2017-Oct-25 17:30N 45°41' W 122°46'0 0.0
2017-Oct-25 16:51N 45°41' W 122°46'0 0.0
2017-Oct-25 16:24N 45°41' W 122°46'0 0.0
2017-Oct-25 15:51N 45°41' W 122°46'0 0.0
2017-Oct-25 15:27N 45°41' W 122°46'0 0.0
2017-Oct-25 15:00N 45°41' W 122°46'0 0.0
2017-Oct-25 14:27N 45°41' W 122°46'0 0.0
2017-Oct-25 13:57N 45°41' W 122°46'0 0.0
2017-Oct-25 13:30N 45°41' W 122°46'0 0.0
2017-Oct-25 13:00N 45°41' W 122°46'0 0.0
2017-Oct-25 12:30N 45°41' W 122°46'0 0.0
2017-Oct-25 12:00N 45°41' W 122°46'0 0.0
2017-Oct-25 11:30N 45°41' W 122°46'0 0.0
2017-Oct-25 11:00N 45°41' W 122°46'0 0.0
2017-Oct-25 10:30N 45°41' W 122°46'0 0.0
2017-Oct-25 10:00N 45°41' W 122°46'0 0.0
2017-Oct-25 09:27N 45°41' W 122°46'0 0.0
2017-Oct-25 09:00N 45°41' W 122°46'0 0.0
2017-Oct-25 08:30N 45°41' W 122°46'0 0.0
2017-Oct-25 08:00N 45°41' W 122°46'0 0.0
2017-Oct-25 07:24N 45°41' W 122°46'0 0.0
2017-Oct-25 07:00N 45°41' W 122°46'0 0.0
2017-Oct-25 06:30N 45°41' W 122°46'0 0.0
2017-Oct-25 06:00N 45°41' W 122°46'0 0.0
2017-Oct-25 05:30N 45°41' W 122°46'0 0.0
2017-Oct-25 04:57N 45°41' W 122°46'0 0.0
2017-Oct-25 04:27N 45°41' W 122°46'0 0.0
2017-Oct-25 03:51N 45°41' W 122°46'0 0.0
2017-Oct-25 03:30N 45°41' W 122°46'0 0.0
2017-Oct-25 02:57N 45°41' W 122°46'0 0.0
2017-Oct-25 02:30N 45°41' W 122°46'0 0.0
2017-Oct-25 02:00N 45°41' W 122°46'0 0.0
2017-Oct-25 01:27N 45°41' W 122°46'0 0.0
2017-Oct-25 00:51N 45°41' W 122°46'0 0.0
2017-Oct-25 00:27N 45°41' W 122°46'0 0.0
2017-Oct-25 00:00N 45°41' W 122°46'0 0.0
2017-Oct-24 23:30N 45°41' W 122°46'0 0.0
2017-Oct-24 23:00N 45°41' W 122°46'0 0.0
2017-Oct-24 22:27N 45°41' W 122°46'0 0.0
2017-Oct-24 22:00N 45°41' W 122°46'0 0.0
2017-Oct-24 21:27N 45°41' W 122°46'0 0.0
2017-Oct-24 20:57N 45°41' W 122°46'0 0.0
2017-Oct-24 20:27N 45°41' W 122°46'0 0.0
2017-Oct-24 19:57N 45°41' W 122°46'0 0.0
2017-Oct-24 19:30N 45°41' W 122°46'0 0.0
2017-Oct-24 19:00N 45°41' W 122°46'0 0.0
2017-Oct-24 18:12N 45°41' W 122°46'0 0.0
2017-Oct-24 17:57N 45°41' W 122°46'0 0.0
2017-Oct-24 17:24N 45°41' W 122°46'0 0.0
2017-Oct-24 16:57N 45°41' W 122°46'0 0.0
2017-Oct-24 16:30N 45°41' W 122°46'0 0.0
2017-Oct-24 15:57N 45°41' W 122°46'0 0.0
2017-Oct-24 15:30N 45°41' W 122°46'0 0.0
2017-Oct-24 15:00N 45°41' W 122°46'0 0.0
2017-Oct-24 14:30N 45°41' W 122°46'0 0.0
2017-Oct-24 14:00N 45°41' W 122°46'0 0.0
2017-Oct-24 13:30N 45°41' W 122°46'0 0.0
2017-Oct-24 13:00N 45°41' W 122°46'0 0.0
2017-Oct-24 12:30N 45°41' W 122°46'0 0.0
2017-Oct-24 11:57N 45°41' W 122°46'0 0.0
2017-Oct-24 11:30N 45°41' W 122°46'0 0.0
2017-Oct-24 11:00N 45°41' W 122°46'0 0.0
2017-Oct-24 10:30N 45°41' W 122°46'0 0.0
2017-Oct-24 10:00N 45°41' W 122°46'0 0.0
2017-Oct-24 09:30N 45°41' W 122°46'0 0.0
2017-Oct-24 09:00N 45°41' W 122°46'0 0.0
2017-Oct-24 08:30N 45°41' W 122°46'0 0.0
2017-Oct-24 08:00N 45°41' W 122°46'0 0.0
2017-Oct-24 07:27N 45°41' W 122°46'0 0.0
2017-Oct-24 06:57N 45°41' W 122°46'0 0.0
2017-Oct-24 06:30N 45°41' W 122°46'0 0.0
2017-Oct-24 06:00N 45°41' W 122°46'0 0.0
2017-Oct-24 05:30N 45°41' W 122°46'0 0.0
2017-Oct-24 05:00N 45°41' W 122°46'0 0.0
2017-Oct-24 04:30N 45°41' W 122°46'0 0.0
2017-Oct-24 04:00N 45°41' W 122°46'0 0.0
2017-Oct-24 03:30N 45°41' W 122°46'0 0.0
2017-Oct-24 03:00N 45°41' W 122°46'0 0.0
2017-Oct-24 02:30N 45°41' W 122°46'0 0.0
2017-Oct-24 02:00N 45°41' W 122°46'0 0.0
2017-Oct-24 01:30N 45°41' W 122°46'0 0.0
2017-Oct-24 01:00N 45°41' W 122°46'0 0.0
2017-Oct-24 00:30N 45°41' W 122°46'0 0.0
2017-Oct-24 00:00N 45°41' W 122°46'0 0.0
2017-Oct-23 23:27N 45°41' W 122°46'0 0.0
2017-Oct-23 23:00N 45°41' W 122°46'0 0.0
2017-Oct-23 22:30N 45°41' W 122°46'0 0.0
2017-Oct-23 22:00N 45°41' W 122°46'0 0.0
2017-Oct-23 21:27N 45°41' W 122°46'0 0.0
2017-Oct-23 20:57N 45°41' W 122°46'0 0.0
2017-Oct-23 20:27N 45°41' W 122°46'  

Dump ship's entire track history